GLO1447 SBGL-SBSP
Flight info
| Callsign | GLO1447 |
|---|---|
| Flight time | 0h 49m |
| Altitude | 26000 |
| Route | NAXOP UZ45 IBDAL |
| Aircraft | B738/M-SDE2E3FGHIRWXY/LB1 |
Departure
| Time | 2026-05-07 17:26 |
|---|---|
| Airport | Rio Galeão – Tom Jobim International Airport (SBGL) |
Arrival
| Time | 2026-05-07 18:15 |
|---|---|
| Airport | Congonhas–Deputado Freitas Nobre Airport (SBSP) |
| Time | Latitude | Longitude | Altitude | Speed | Heading |
|---|---|---|---|---|---|
| 2026-05-07 17:03 | -22.81646 | -43.24588 | 36 ft | 0 kts | 359° |
| 2026-05-07 17:12 | -22.81653 | -43.24588 | 36 ft | 0 kts | 358° |
| 2026-05-07 17:14 | -22.81667 | -43.24587 | 36 ft | 2 kts | 359° |
| 2026-05-07 17:14 | -22.81681 | -43.24587 | 36 ft | 2 kts | 359° |
| 2026-05-07 17:14 | -22.81696 | -43.24587 | 36 ft | 2 kts | 359° |
| 2026-05-07 17:15 | -22.81706 | -43.24587 | 36 ft | 1 kts | 359° |
| 2026-05-07 17:15 | -22.81721 | -43.24584 | 36 ft | 2 kts | 336° |
| 2026-05-07 17:15 | -22.81733 | -43.24576 | 36 ft | 0 kts | 320° |
| 2026-05-07 17:15 | -22.81737 | -43.24572 | 36 ft | 1 kts | 316° |
| 2026-05-07 17:16 | -22.81738 | -43.24571 | 36 ft | 0 kts | 316° |
| 2026-05-07 17:18 | -22.81713 | -43.24600 | 36 ft | 10 kts | 308° |
| 2026-05-07 17:19 | -22.81665 | -43.24674 | 36 ft | 11 kts | 305° |
| 2026-05-07 17:19 | -22.81625 | -43.24735 | 36 ft | 9 kts | 304° |
| 2026-05-07 17:19 | -22.81576 | -43.24814 | 38 ft | 12 kts | 304° |
| 2026-05-07 17:19 | -22.81523 | -43.24872 | 38 ft | 8 kts | 315° |
| 2026-05-07 17:20 | -22.81494 | -43.24924 | 38 ft | 7 kts | 298° |
| 2026-05-07 17:20 | -22.81466 | -43.24991 | 37 ft | 10 kts | 294° |
| 2026-05-07 17:20 | -22.81420 | -43.25069 | 36 ft | 15 kts | 305° |
| 2026-05-07 17:20 | -22.81354 | -43.25151 | 36 ft | 12 kts | 308° |
| 2026-05-07 17:21 | -22.81302 | -43.25228 | 34 ft | 12 kts | 306° |
| 2026-05-07 17:21 | -22.81247 | -43.25300 | 31 ft | 12 kts | 317° |
| 2026-05-07 17:21 | -22.81175 | -43.25353 | 29 ft | 11 kts | 334° |
| 2026-05-07 17:21 | -22.81106 | -43.25380 | 29 ft | 9 kts | 350° |
| 2026-05-07 17:22 | -22.81053 | -43.25384 | 29 ft | 6 kts | 0° |
| 2026-05-07 17:22 | -22.81015 | -43.25381 | 29 ft | 4 kts | 6° |
| 2026-05-07 17:22 | -22.80985 | -43.25377 | 29 ft | 3 kts | 5° |
| 2026-05-07 17:22 | -22.80961 | -43.25401 | 29 ft | 12 kts | 298° |
| 2026-05-07 17:23 | -22.80916 | -43.25501 | 27 ft | 14 kts | 295° |
| 2026-05-07 17:23 | -22.80860 | -43.25586 | 27 ft | 13 kts | 345° |
| 2026-05-07 17:23 | -22.80776 | -43.25542 | 25 ft | 14 kts | 36° |
| 2026-05-07 17:23 | -22.80692 | -43.25477 | 24 ft | 14 kts | 36° |
| 2026-05-07 17:24 | -22.80614 | -43.25415 | 25 ft | 12 kts | 36° |
| 2026-05-07 17:24 | -22.80542 | -43.25367 | 24 ft | 15 kts | 2° |
| 2026-05-07 17:24 | -22.80434 | -43.25422 | 24 ft | 17 kts | 330° |
| 2026-05-07 17:24 | -22.80336 | -43.25492 | 24 ft | 14 kts | 327° |
| 2026-05-07 17:25 | -22.80241 | -43.25497 | 24 ft | 13 kts | 15° |
| 2026-05-07 17:25 | -22.80185 | -43.25489 | 24 ft | 0 kts | 69° |
| 2026-05-07 17:25 | -22.80183 | -43.25483 | 24 ft | 5 kts | 69° |
| 2026-05-07 17:25 | -22.80087 | -43.25124 | 24 ft | 94 kts | 75° |
| 2026-05-07 17:26 | -22.79843 | -43.24169 | 25 ft | 167 kts | 75° |
| 2026-05-07 17:26 | -22.79508 | -43.22823 | 389 ft | 201 kts | 76° |
| 2026-05-07 17:26 | -22.79145 | -43.21304 | 1281 ft | 207 kts | 74° |
| 2026-05-07 17:26 | -22.78809 | -43.19812 | 2009 ft | 209 kts | 76° |
| 2026-05-07 17:27 | -22.78493 | -43.18231 | 2510 ft | 223 kts | 75° |
| 2026-05-07 17:27 | -22.78141 | -43.16556 | 3040 ft | 238 kts | 74° |
| 2026-05-07 17:27 | -22.77760 | -43.14780 | 3808 ft | 244 kts | 74° |
| 2026-05-07 17:27 | -22.77380 | -43.13007 | 4646 ft | 246 kts | 74° |
| 2026-05-07 17:28 | -22.76995 | -43.11209 | 5494 ft | 247 kts | 73° |
| 2026-05-07 17:28 | -22.76609 | -43.09417 | 6308 ft | 250 kts | 73° |
| 2026-05-07 17:28 | -22.76208 | -43.07572 | 7111 ft | 254 kts | 73° |
| 2026-05-07 17:28 | -22.75870 | -43.05721 | 7929 ft | 259 kts | 80° |
| 2026-05-07 17:29 | -22.76030 | -43.03741 | 8752 ft | 271 kts | 106° |
| 2026-05-07 17:29 | -22.77017 | -43.02009 | 9561 ft | 281 kts | 131° |
| 2026-05-07 17:29 | -22.78553 | -43.00717 | 10411 ft | 286 kts | 146° |
| 2026-05-07 17:29 | -22.80276 | -42.99602 | 11301 ft | 288 kts | 148° |
| 2026-05-07 17:30 | -22.82006 | -42.98538 | 12180 ft | 289 kts | 151° |
| 2026-05-07 17:30 | -22.83888 | -42.97743 | 12973 ft | 295 kts | 168° |
| 2026-05-07 17:30 | -22.85987 | -42.97762 | 13576 ft | 309 kts | 189° |
| 2026-05-07 17:30 | -22.88106 | -42.98302 | 14143 ft | 323 kts | 195° |
| 2026-05-07 17:31 | -22.90311 | -42.99021 | 14724 ft | 337 kts | 198° |
| 2026-05-07 17:31 | -22.92582 | -42.99900 | 15270 ft | 351 kts | 201° |
| 2026-05-07 17:31 | -22.94850 | -43.00958 | 15920 ft | 361 kts | 205° |
| 2026-05-07 17:31 | -22.97101 | -43.02174 | 16701 ft | 366 kts | 207° |
| 2026-05-07 17:32 | -22.99342 | -43.03510 | 17566 ft | 368 kts | 209° |
| 2026-05-07 17:32 | -23.01552 | -43.04916 | 18453 ft | 368 kts | 210° |
| 2026-05-07 17:32 | -23.03740 | -43.06372 | 19327 ft | 368 kts | 211° |
| 2026-05-07 17:32 | -23.05161 | -43.07346 | 19860 ft | 369 kts | 212° |
| 2026-05-07 17:33 | -23.08040 | -43.09389 | 20893 ft | 372 kts | 213° |
| 2026-05-07 17:33 | -23.10148 | -43.11108 | 21670 ft | 374 kts | 221° |
| 2026-05-07 17:33 | -23.11932 | -43.13220 | 22483 ft | 375 kts | 233° |
| 2026-05-07 17:33 | -23.13176 | -43.15438 | 23290 ft | 373 kts | 242° |
| 2026-05-07 17:34 | -23.14171 | -43.17768 | 24096 ft | 370 kts | 245° |
| 2026-05-07 17:34 | -23.15152 | -43.20305 | 24934 ft | 367 kts | 245° |
| 2026-05-07 17:34 | -23.16119 | -43.22860 | 25614 ft | 365 kts | 245° |
| 2026-05-07 17:34 | -23.17081 | -43.25417 | 25931 ft | 360 kts | 245° |
| 2026-05-07 17:35 | -23.18035 | -43.27935 | 25955 ft | 355 kts | 245° |
| 2026-05-07 17:35 | -23.18970 | -43.30393 | 25953 ft | 352 kts | 245° |
| 2026-05-07 17:35 | -23.19912 | -43.32855 | 25945 ft | 352 kts | 245° |
| 2026-05-07 17:35 | -23.20856 | -43.35312 | 25944 ft | 352 kts | 245° |
| 2026-05-07 17:36 | -23.21790 | -43.37738 | 25943 ft | 352 kts | 245° |
| 2026-05-07 17:36 | -23.22741 | -43.40208 | 25943 ft | 352 kts | 245° |
| 2026-05-07 17:36 | -23.23677 | -43.42645 | 25941 ft | 351 kts | 245° |
| 2026-05-07 17:36 | -23.24616 | -43.45092 | 25939 ft | 353 kts | 245° |
| 2026-05-07 17:37 | -23.25572 | -43.47581 | 25940 ft | 353 kts | 245° |
| 2026-05-07 17:37 | -23.26507 | -43.50017 | 25937 ft | 352 kts | 245° |
| 2026-05-07 17:37 | -23.27457 | -43.52496 | 25933 ft | 352 kts | 245° |
| 2026-05-07 17:37 | -23.28389 | -43.54926 | 25933 ft | 352 kts | 245° |
| 2026-05-07 17:38 | -23.29330 | -43.57381 | 25934 ft | 351 kts | 245° |
| 2026-05-07 17:38 | -23.30276 | -43.59849 | 25933 ft | 352 kts | 245° |
| 2026-05-07 17:38 | -23.31208 | -43.62283 | 25928 ft | 352 kts | 245° |
| 2026-05-07 17:38 | -23.32160 | -43.64769 | 25935 ft | 352 kts | 245° |
| 2026-05-07 17:39 | -23.33101 | -43.67229 | 25931 ft | 353 kts | 246° |
| 2026-05-07 17:39 | -23.34038 | -43.69678 | 25934 ft | 354 kts | 246° |
| 2026-05-07 17:39 | -23.34984 | -43.72157 | 25937 ft | 353 kts | 246° |
| 2026-05-07 17:39 | -23.35917 | -43.74599 | 25937 ft | 353 kts | 246° |
| 2026-05-07 17:40 | -23.36866 | -43.77085 | 25934 ft | 353 kts | 246° |
| 2026-05-07 17:40 | -23.37812 | -43.79567 | 25936 ft | 353 kts | 246° |
| 2026-05-07 17:40 | -23.38745 | -43.82014 | 25938 ft | 352 kts | 246° |
| 2026-05-07 17:40 | -23.39695 | -43.84507 | 25940 ft | 353 kts | 246° |
| 2026-05-07 17:41 | -23.40627 | -43.86954 | 25938 ft | 352 kts | 246° |
| 2026-05-07 17:41 | -23.41568 | -43.89423 | 25936 ft | 353 kts | 246° |
| 2026-05-07 17:41 | -23.42512 | -43.91902 | 25936 ft | 352 kts | 246° |
| 2026-05-07 17:41 | -23.43434 | -43.94326 | 25935 ft | 351 kts | 246° |
| 2026-05-07 17:42 | -23.44371 | -43.96792 | 25935 ft | 351 kts | 246° |
| 2026-05-07 17:42 | -23.45307 | -43.99256 | 25937 ft | 352 kts | 246° |
| 2026-05-07 17:42 | -23.46242 | -44.01720 | 25935 ft | 353 kts | 246° |
| 2026-05-07 17:42 | -23.47180 | -44.04194 | 25934 ft | 352 kts | 246° |
| 2026-05-07 17:43 | -23.48121 | -44.06675 | 25935 ft | 353 kts | 246° |
| 2026-05-07 17:43 | -23.49049 | -44.09123 | 25936 ft | 353 kts | 246° |
| 2026-05-07 17:43 | -23.49979 | -44.11579 | 25937 ft | 352 kts | 246° |
| 2026-05-07 17:43 | -23.50905 | -44.14033 | 25938 ft | 352 kts | 246° |
| 2026-05-07 17:44 | -23.51760 | -44.16542 | 25937 ft | 353 kts | 250° |
| 2026-05-07 17:44 | -23.52442 | -44.19125 | 25938 ft | 354 kts | 254° |
| 2026-05-07 17:44 | -23.53031 | -44.21727 | 25936 ft | 354 kts | 255° |
| 2026-05-07 17:44 | -23.53597 | -44.24341 | 25938 ft | 353 kts | 255° |
| 2026-05-07 17:45 | -23.54163 | -44.26948 | 25936 ft | 354 kts | 255° |
| 2026-05-07 17:45 | -23.54733 | -44.29533 | 25939 ft | 353 kts | 255° |
| 2026-05-07 17:45 | -23.55317 | -44.32144 | 25941 ft | 353 kts | 254° |
| 2026-05-07 17:45 | -23.55909 | -44.34766 | 25941 ft | 353 kts | 254° |
| 2026-05-07 17:46 | -23.56496 | -44.37352 | 25938 ft | 352 kts | 254° |
| 2026-05-07 17:46 | -23.57081 | -44.39924 | 25941 ft | 354 kts | 254° |
| 2026-05-07 17:46 | -23.57675 | -44.42537 | 25941 ft | 354 kts | 254° |
| 2026-05-07 17:46 | -23.58268 | -44.45143 | 25941 ft | 353 kts | 254° |
| 2026-05-07 17:47 | -23.58852 | -44.47707 | 25940 ft | 351 kts | 254° |
| 2026-05-07 17:47 | -23.59441 | -44.50295 | 25941 ft | 352 kts | 254° |
| 2026-05-07 17:47 | -23.60035 | -44.52900 | 25939 ft | 354 kts | 255° |
| 2026-05-07 17:47 | -23.60620 | -44.55477 | 25934 ft | 352 kts | 255° |
| 2026-05-07 17:48 | -23.61210 | -44.58077 | 25939 ft | 351 kts | 255° |
| 2026-05-07 17:48 | -23.61798 | -44.60670 | 25939 ft | 353 kts | 255° |
| 2026-05-07 17:48 | -23.62381 | -44.63244 | 25933 ft | 353 kts | 255° |
| 2026-05-07 17:48 | -23.62968 | -44.65836 | 25933 ft | 352 kts | 255° |
| 2026-05-07 17:49 | -23.63557 | -44.68446 | 25932 ft | 352 kts | 255° |
| 2026-05-07 17:49 | -23.64142 | -44.71030 | 25934 ft | 351 kts | 255° |
| 2026-05-07 17:49 | -23.64721 | -44.73591 | 25935 ft | 350 kts | 255° |
| 2026-05-07 17:49 | -23.65307 | -44.76185 | 25935 ft | 352 kts | 255° |
| 2026-05-07 17:50 | -23.65895 | -44.78797 | 25931 ft | 352 kts | 255° |
| 2026-05-07 17:50 | -23.66481 | -44.81399 | 25936 ft | 350 kts | 255° |
| 2026-05-07 17:50 | -23.67060 | -44.83969 | 25938 ft | 351 kts | 255° |
| 2026-05-07 17:50 | -23.67631 | -44.86507 | 25937 ft | 352 kts | 255° |
| 2026-05-07 17:51 | -23.68222 | -44.89130 | 25937 ft | 352 kts | 255° |
| 2026-05-07 17:51 | -23.68806 | -44.91730 | 25936 ft | 352 kts | 255° |
| 2026-05-07 17:51 | -23.69394 | -44.94349 | 25935 ft | 350 kts | 255° |
| 2026-05-07 17:51 | -23.69972 | -44.96925 | 25929 ft | 350 kts | 255° |
| 2026-05-07 17:52 | -23.70556 | -44.99533 | 25746 ft | 348 kts | 255° |
| 2026-05-07 17:52 | -23.71129 | -45.02094 | 25507 ft | 339 kts | 255° |
| 2026-05-07 17:52 | -23.71683 | -45.04576 | 25159 ft | 334 kts | 256° |
| 2026-05-07 17:52 | -23.72228 | -45.07024 | 24742 ft | 332 kts | 256° |
| 2026-05-07 17:53 | -23.72777 | -45.09488 | 24307 ft | 329 kts | 256° |
| 2026-05-07 17:53 | -23.73320 | -45.11917 | 23893 ft | 327 kts | 256° |
| 2026-05-07 17:53 | -23.73857 | -45.14321 | 23482 ft | 324 kts | 256° |
| 2026-05-07 17:53 | -23.74385 | -45.16696 | 23066 ft | 322 kts | 256° |
| 2026-05-07 17:54 | -23.74915 | -45.19077 | 22653 ft | 320 kts | 257° |
| 2026-05-07 17:54 | -23.75407 | -45.21291 | 22284 ft | 318 kts | 257° |
| 2026-05-07 17:54 | -23.75937 | -45.23668 | 21869 ft | 324 kts | 257° |
| 2026-05-07 17:54 | -23.76473 | -45.26088 | 21445 ft | 334 kts | 257° |
| 2026-05-07 17:55 | -23.77027 | -45.28594 | 21012 ft | 334 kts | 257° |
| 2026-05-07 17:55 | -23.77570 | -45.31056 | 20602 ft | 331 kts | 257° |
| 2026-05-07 17:55 | -23.78109 | -45.33492 | 20183 ft | 329 kts | 257° |
| 2026-05-07 17:55 | -23.78649 | -45.35942 | 19777 ft | 327 kts | 257° |
| 2026-05-07 17:56 | -23.79178 | -45.38341 | 19358 ft | 326 kts | 257° |
| 2026-05-07 17:56 | -23.79631 | -45.40746 | 18978 ft | 324 kts | 262° |
| 2026-05-07 17:56 | -23.79886 | -45.43215 | 18946 ft | 326 kts | 266° |
| 2026-05-07 17:56 | -23.80031 | -45.45715 | 18947 ft | 333 kts | 268° |
| 2026-05-07 17:57 | -23.80145 | -45.48262 | 18943 ft | 332 kts | 268° |
| 2026-05-07 17:57 | -23.80218 | -45.49931 | 18951 ft | 332 kts | 268° |
| 2026-05-07 17:57 | -23.80376 | -45.53351 | 18953 ft | 332 kts | 267° |
| 2026-05-07 17:57 | -23.80501 | -45.55918 | 18951 ft | 332 kts | 268° |
| 2026-05-07 17:58 | -23.80631 | -45.58479 | 18952 ft | 332 kts | 267° |
| 2026-05-07 17:58 | -23.80760 | -45.61019 | 18951 ft | 332 kts | 267° |
| 2026-05-07 17:58 | -23.80889 | -45.63533 | 18955 ft | 334 kts | 268° |
| 2026-05-07 17:58 | -23.81018 | -45.66074 | 18896 ft | 333 kts | 268° |
| 2026-05-07 17:59 | -23.81145 | -45.68563 | 18567 ft | 329 kts | 268° |
| 2026-05-07 17:59 | -23.81272 | -45.71059 | 18177 ft | 327 kts | 268° |
| 2026-05-07 17:59 | -23.81397 | -45.73537 | 17770 ft | 326 kts | 269° |
| 2026-05-07 17:59 | -23.81523 | -45.76037 | 17338 ft | 326 kts | 269° |
| 2026-05-07 18:00 | -23.81647 | -45.78535 | 16917 ft | 325 kts | 269° |
| 2026-05-07 18:00 | -23.81771 | -45.81008 | 16485 ft | 325 kts | 269° |
| 2026-05-07 18:00 | -23.81893 | -45.83465 | 16069 ft | 323 kts | 269° |
| 2026-05-07 18:00 | -23.82016 | -45.85918 | 15671 ft | 321 kts | 269° |
| 2026-05-07 18:01 | -23.82135 | -45.88325 | 15262 ft | 320 kts | 268° |
| 2026-05-07 18:01 | -23.82255 | -45.90765 | 14865 ft | 319 kts | 269° |
| 2026-05-07 18:01 | -23.82374 | -45.93196 | 14422 ft | 317 kts | 269° |
| 2026-05-07 18:01 | -23.82491 | -45.95576 | 14029 ft | 314 kts | 269° |
| 2026-05-07 18:02 | -23.82722 | -46.00296 | 13248 ft | 309 kts | 268° |
| 2026-05-07 18:02 | -23.83145 | -46.02587 | 12881 ft | 309 kts | 249° |
| 2026-05-07 18:02 | -23.84215 | -46.04602 | 12550 ft | 307 kts | 236° |
| 2026-05-07 18:03 | -23.85488 | -46.06456 | 12241 ft | 305 kts | 233° |
| 2026-05-07 18:03 | -23.86801 | -46.08281 | 11906 ft | 301 kts | 233° |
| 2026-05-07 18:03 | -23.88083 | -46.10043 | 11629 ft | 297 kts | 233° |
| 2026-05-07 18:03 | -23.89384 | -46.11820 | 11280 ft | 295 kts | 233° |
| 2026-05-07 18:04 | -23.90676 | -46.13571 | 10981 ft | 294 kts | 233° |
| 2026-05-07 18:04 | -23.91982 | -46.15339 | 10679 ft | 305 kts | 233° |
| 2026-05-07 18:04 | -23.93330 | -46.17151 | 10362 ft | 304 kts | 233° |
| 2026-05-07 18:04 | -23.94651 | -46.18910 | 10036 ft | 299 kts | 233° |
| 2026-05-07 18:05 | -23.95967 | -46.20654 | 9854 ft | 291 kts | 235° |
| 2026-05-07 18:05 | -23.96924 | -46.22573 | 9463 ft | 282 kts | 258° |
| 2026-05-07 18:05 | -23.97023 | -46.24656 | 9129 ft | 271 kts | 285° |
| 2026-05-07 18:05 | -23.96372 | -46.26427 | 8919 ft | 268 kts | 303° |
| 2026-05-07 18:06 | -23.95354 | -46.28162 | 8676 ft | 267 kts | 307° |
| 2026-05-07 18:06 | -23.94312 | -46.29843 | 8438 ft | 265 kts | 307° |
| 2026-05-07 18:06 | -23.93307 | -46.31517 | 8183 ft | 263 kts | 306° |
| 2026-05-07 18:06 | -23.92327 | -46.33203 | 7929 ft | 263 kts | 305° |
| 2026-05-07 18:07 | -23.91361 | -46.34887 | 7693 ft | 262 kts | 304° |
| 2026-05-07 18:07 | -23.90399 | -46.36572 | 7512 ft | 257 kts | 304° |
| 2026-05-07 18:07 | -23.89462 | -46.38211 | 7305 ft | 250 kts | 305° |
| 2026-05-07 18:07 | -23.88552 | -46.39805 | 7193 ft | 240 kts | 305° |
| 2026-05-07 18:08 | -23.87686 | -46.41320 | 7132 ft | 226 kts | 305° |
| 2026-05-07 18:08 | -23.86887 | -46.42719 | 7065 ft | 207 kts | 306° |
| 2026-05-07 18:08 | -23.86154 | -46.43998 | 6994 ft | 193 kts | 306° |
| 2026-05-07 18:08 | -23.85432 | -46.45235 | 6915 ft | 193 kts | 308° |
| 2026-05-07 18:09 | -23.84638 | -46.46445 | 6717 ft | 193 kts | 311° |
| 2026-05-07 18:09 | -23.83825 | -46.47611 | 6511 ft | 190 kts | 311° |
| 2026-05-07 18:09 | -23.83033 | -46.48754 | 6313 ft | 189 kts | 310° |
| 2026-05-07 18:09 | -23.82246 | -46.49902 | 6123 ft | 188 kts | 310° |
| 2026-05-07 18:10 | -23.81478 | -46.51028 | 5956 ft | 181 kts | 310° |
| 2026-05-07 18:10 | -23.80735 | -46.52119 | 5761 ft | 172 kts | 310° |
| 2026-05-07 18:10 | -23.80035 | -46.53144 | 5588 ft | 165 kts | 310° |
| 2026-05-07 18:10 | -23.79319 | -46.54123 | 5448 ft | 164 kts | 319° |
| 2026-05-07 18:11 | -23.78395 | -46.54841 | 5346 ft | 162 kts | 333° |
| 2026-05-07 18:11 | -23.77714 | -46.55232 | 5281 ft | 163 kts | 333° |
| 2026-05-07 18:11 | -23.76440 | -46.56107 | 5132 ft | 162 kts | 328° |
| 2026-05-07 18:11 | -23.75492 | -46.56783 | 5019 ft | 161 kts | 329° |
| 2026-05-07 18:12 | -23.74515 | -46.57433 | 4890 ft | 164 kts | 330° |
| 2026-05-07 18:12 | -23.73583 | -46.58072 | 4742 ft | 154 kts | 328° |
| 2026-05-07 18:12 | -23.72703 | -46.58718 | 4592 ft | 151 kts | 328° |
| 2026-05-07 18:12 | -23.71826 | -46.59330 | 4466 ft | 148 kts | 328° |
| 2026-05-07 18:13 | -23.70934 | -46.59938 | 4345 ft | 152 kts | 332° |
| 2026-05-07 18:13 | -23.70024 | -46.60507 | 4212 ft | 150 kts | 330° |
| 2026-05-07 18:13 | -23.69178 | -46.61138 | 3993 ft | 145 kts | 328° |
| 2026-05-07 18:13 | -23.68334 | -46.61734 | 3775 ft | 140 kts | 327° |
| 2026-05-07 18:14 | -23.67511 | -46.62306 | 3590 ft | 142 kts | 328° |
| 2026-05-07 18:14 | -23.66675 | -46.62862 | 3474 ft | 139 kts | 332° |
| 2026-05-07 18:14 | -23.65822 | -46.63411 | 3483 ft | 143 kts | 329° |
| 2026-05-07 18:14 | -23.64984 | -46.64053 | 3296 ft | 150 kts | 328° |
| 2026-05-07 18:15 | -23.64097 | -46.64648 | 2932 ft | 151 kts | 328° |
| 2026-05-07 18:15 | -23.63212 | -46.65263 | 2631 ft | 144 kts | 327° |
| 2026-05-07 18:15 | -23.62538 | -46.65736 | 2595 ft | 76 kts | 327° |
| 2026-05-07 18:15 | -23.62269 | -46.65920 | 2586 ft | 23 kts | 329° |
| 2026-05-07 18:16 | -23.62207 | -46.66019 | 2583 ft | 16 kts | 239° |
| 2026-05-07 18:16 | -23.62288 | -46.66043 | 2583 ft | 11 kts | 178° |
| 2026-05-07 18:16 | -23.62360 | -46.66017 | 2584 ft | 9 kts | 151° |
| 2026-05-07 18:16 | -23.62417 | -46.65978 | 2585 ft | 10 kts | 147° |
| 2026-05-07 18:17 | -23.62474 | -46.65938 | 2587 ft | 8 kts | 148° |
| 2026-05-07 18:17 | -23.62515 | -46.65910 | 2589 ft | 5 kts | 147° |
| 2026-05-07 18:17 | -23.62539 | -46.65895 | 2589 ft | 1 kts | 167° |
| 2026-05-07 18:17 | -23.62553 | -46.65901 | 2590 ft | 2 kts | 212° |
| 2026-05-07 18:18 | -23.62562 | -46.65910 | 2590 ft | 1 kts | 224° |
| 2026-05-07 18:18 | -23.62570 | -46.65919 | 2590 ft | 1 kts | 237° |
| 2026-05-07 18:18 | -23.62572 | -46.65923 | 2590 ft | 0 kts | 237° |